Time;durP1;ratioP1;P1;durP2;ratioP2;P2;SDS_P1;SDS_P2;PMS_P1;PMS_P2;Temp;Humidity;BMP_temperature;BMP_pressure;BME280_temperature;BME280_humidity;BME280_pressure;Samples;Min_cycle;Max_cycle;Signal;HPM_P1;HPM_P2
2023/09/25 00:00:48;;;;;;;3.07;2.63;;;22.10;53.90;;;;;;5076857;28;20193;-69
2023/09/25 00:03:15;;;;;;;2.87;2.57;;;22.10;53.80;;;;;;5076557;28;20523;-67
2023/09/25 00:05:41;;;;;;;2.60;2.40;;;22.10;53.80;;;;;;5075509;28;20938;-68
2023/09/25 00:08:06;;;;;;;3.00;2.20;;;22.10;53.80;;;;;;5076782;28;20491;-68
2023/09/25 00:10:32;;;;;;;2.70;2.17;;;22.10;53.80;;;;;;5076837;28;20417;-69
2023/09/25 00:12:58;;;;;;;2.90;2.60;;;22.10;53.80;;;;;;5076721;28;20256;-67
2023/09/25 00:15:25;;;;;;;2.37;2.17;;;22.00;53.70;;;;;;5076770;28;20572;-68
2023/09/25 00:17:51;;;;;;;2.90;2.60;;;22.00;53.70;;;;;;5076806;28;20400;-67
2023/09/25 00:20:23;;;;;;;2.90;2.60;;;22.00;53.60;;;;;;5076631;28;20435;-68
2023/09/25 00:22:50;;;;;;;2.40;2.20;;;22.00;53.60;;;;;;5076777;28;20485;-67
2023/09/25 00:25:18;;;;;;;5.10;2.50;;;22.00;53.50;;;;;;5076708;28;20447;-69
2023/09/25 00:27:44;;;;;;;2.60;2.40;;;22.10;53.60;;;;;;5076634;28;20451;-67
2023/09/25 00:30:10;;;;;;;3.93;2.90;;;22.00;53.50;;;;;;5073367;28;20436;-67
2023/09/25 00:32:36;;;;;;;5.80;2.20;;;22.00;53.50;;;;;;5073420;28;20206;-67
2023/09/25 00:35:06;;;;;;;2.77;2.50;;;22.00;53.40;;;;;;5073297;28;20460;-68
2023/09/25 00:37:32;;;;;;;2.57;2.03;;;22.00;53.30;;;;;;5073348;28;20206;-68
2023/09/25 00:39:59;;;;;;;3.30;2.37;;;22.00;53.30;;;;;;5073349;28;20478;-69
2023/09/25 00:42:26;;;;;;;3.67;2.40;;;22.00;53.30;;;;;;5073220;28;20567;-68
2023/09/25 00:44:52;;;;;;;2.73;2.40;;;22.00;53.30;;;;;;5073044;28;20400;-67
2023/09/25 00:47:18;;;;;;;2.30;2.10;;;22.00;53.30;;;;;;5073274;28;20401;-68
2023/09/25 00:49:44;;;;;;;3.43;2.30;;;22.00;53.30;;;;;;5073147;28;20408;-67
2023/09/25 00:52:11;;;;;;;2.40;2.20;;;22.00;53.20;;;;;;5073003;28;20478;-68
2023/09/25 00:54:36;;;;;;;4.00;2.67;;;22.00;53.20;;;;;;5073071;28;20162;-67
2023/09/25 00:57:03;;;;;;;2.83;2.37;;;22.00;53.20;;;;;;5072948;28;20551;-67
2023/09/25 00:59:28;;;;;;;3.20;2.53;;;21.90;53.10;;;;;;5072960;28;20162;-68
2023/09/25 01:01:54;;;;;;;3.17;2.60;;;21.90;53.10;;;;;;5072086;28;20458;-68
2023/09/25 01:04:24;;;;;;;2.73;2.43;;;21.90;53.00;;;;;;5072747;28;20269;-68
2023/09/25 01:06:50;;;;;;;2.60;2.20;;;22.00;53.00;;;;;;5072862;28;20222;-67
2023/09/25 01:09:15;;;;;;;2.20;1.93;;;21.90;52.90;;;;;;5073034;28;21002;-68
2023/09/25 01:11:41;;;;;;;2.40;2.20;;;21.90;52.90;;;;;;5072782;28;20210;-68
2023/09/25 01:14:06;;;;;;;2.77;2.43;;;21.90;52.80;;;;;;5072639;28;20682;-67
2023/09/25 01:16:32;;;;;;;2.43;2.23;;;21.90;52.80;;;;;;5072551;28;20223;-68
2023/09/25 01:18:58;;;;;;;2.40;2.17;;;21.90;52.70;;;;;;5072628;28;20222;-68
2023/09/25 01:21:25;;;;;;;2.80;2.50;;;21.90;52.70;;;;;;5072438;28;20193;-68
2023/09/25 01:23:51;;;;;;;2.50;2.30;;;21.90;52.70;;;;;;5072472;28;20198;-68
2023/09/25 01:26:17;;;;;;;2.30;2.10;;;21.90;52.70;;;;;;5072495;28;20400;-68
2023/09/25 01:28:42;;;;;;;2.20;2.00;;;21.90;52.70;;;;;;5072454;28;20170;-67
2023/09/25 01:31:08;;;;;;;2.27;2.07;;;21.80;52.50;;;;;;5072391;28;20198;-68
2023/09/25 01:33:34;;;;;;;3.60;2.80;;;21.80;52.50;;;;;;5071171;28;20202;-68
2023/09/25 01:36:00;;;;;;;3.10;2.80;;;21.80;52.50;;;;;;5072218;28;20204;-68
2023/09/25 01:38:26;;;;;;;2.40;2.20;;;21.80;52.50;;;;;;5072250;28;20409;-68
2023/09/25 01:40:52;;;;;;;2.33;2.13;;;21.80;52.50;;;;;;5071289;28;20730;-68
2023/09/25 01:43:18;;;;;;;2.40;2.13;;;21.80;52.40;;;;;;5072111;28;20523;-67
2023/09/25 01:45:43;;;;;;;1.80;1.70;;;21.80;52.40;;;;;;5072024;28;20170;-68
2023/09/25 01:48:09;;;;;;;2.40;2.20;;;21.80;52.50;;;;;;5072325;28;20223;-68
2023/09/25 01:50:34;;;;;;;3.20;2.40;;;21.80;52.50;;;;;;5071923;28;20166;-68
2023/09/25 01:53:01;;;;;;;2.50;1.90;;;21.80;52.50;;;;;;5071904;28;20554;-67
2023/09/25 01:55:31;;;;;;;3.73;2.70;;;21.80;52.50;;;;;;5071831;28;20240;-68
2023/09/25 01:57:57;;;;;;;2.03;1.83;;;21.80;52.40;;;;;;5071846;28;20409;-69
2023/09/25 02:00:23;;;;;;;2.30;2.00;;;21.80;52.40;;;;;;5071770;28;20422;-67
2023/09/25 02:02:49;;;;;;;3.10;2.20;;;21.80;52.30;;;;;;5071664;28;20559;-68
2023/09/25 02:05:15;;;;;;;3.83;1.90;;;21.80;52.30;;;;;;5071667;28;20228;-67
2023/09/25 02:07:40;;;;;;;2.77;1.97;;;21.80;52.30;;;;;;5071920;28;20431;-67
2023/09/25 02:10:07;;;;;;;2.17;1.97;;;21.80;52.30;;;;;;5071545;28;20173;-66
2023/09/25 02:12:33;;;;;;;2.57;2.37;;;21.80;52.20;;;;;;5071478;28;20194;-67
2023/09/25 02:15:00;;;;;;;2.27;2.07;;;21.80;52.20;;;;;;5071387;28;20408;-68
2023/09/25 02:17:29;;;;;;;3.40;1.80;;;21.80;52.20;;;;;;5071542;28;20173;-68
2023/09/25 02:20:08;;;;;;;2.20;2.00;;;21.80;52.20;;;;;;5071497;28;20854;-67
2023/09/25 02:22:33;;;;;;;2.30;2.10;;;21.80;52.20;;;;;;5071343;28;20515;-68
2023/09/25 02:24:59;;;;;;;2.20;1.90;;;21.70;52.20;;;;;;5071292;28;20492;-67
2023/09/25 02:27:25;;;;;;;2.83;2.20;;;21.70;52.10;;;;;;5071264;28;20647;-68
2023/09/25 02:29:50;;;;;;;2.80;2.07;;;21.70;52.20;;;;;;5071261;28;20200;-67
2023/09/25 02:32:16;;;;;;;2.20;2.00;;;21.70;52.10;;;;;;5071153;28;20261;-67
2023/09/25 02:34:41;;;;;;;2.40;2.20;;;21.70;52.20;;;;;;5071173;28;20167;-68
2023/09/25 02:37:07;;;;;;;2.33;2.13;;;21.70;52.20;;;;;;5071058;28;20755;-68
2023/09/25 02:39:32;;;;;;;2.67;2.47;;;21.70;52.10;;;;;;5071114;28;20193;-67
2023/09/25 02:41:58;;;;;;;2.63;2.20;;;21.70;52.10;;;;;;5071239;28;20166;-68
2023/09/25 02:44:23;;;;;;;2.80;2.37;;;21.70;52.10;;;;;;5071049;28;20171;-68
2023/09/25 02:46:49;;;;;;;2.20;2.00;;;21.70;52.10;;;;;;5070998;28;20178;-68
2023/09/25 02:49:14;;;;;;;3.40;2.10;;;21.70;52.10;;;;;;5071036;28;20895;-65
2023/09/25 02:51:40;;;;;;;3.47;2.20;;;21.70;52.10;;;;;;5070591;28;20174;-68
2023/09/25 02:54:06;;;;;;;2.50;2.07;;;21.70;52.00;;;;;;5070811;28;20229;-67
2023/09/25 02:56:31;;;;;;;2.50;2.00;;;21.70;52.00;;;;;;5069520;28;20205;-69
2023/09/25 02:58:57;;;;;;;2.30;2.00;;;21.70;52.00;;;;;;5070765;28;20167;-67
2023/09/25 03:01:22;;;;;;;3.00;2.60;;;21.60;52.00;;;;;;5070827;28;20173;-68
2023/09/25 03:03:48;;;;;;;1.97;1.77;;;21.60;51.90;;;;;;5070736;28;20197;-67
2023/09/25 03:06:14;;;;;;;2.50;2.30;;;21.60;51.90;;;;;;5070996;28;20174;-68
2023/09/25 03:08:39;;;;;;;3.17;2.10;;;21.60;52.00;;;;;;5070951;28;20988;-68
2023/09/25 03:11:05;;;;;;;2.07;1.87;;;21.70;52.00;;;;;;5070777;28;20178;-65
2023/09/25 03:13:31;;;;;;;2.63;2.43;;;21.60;51.90;;;;;;5070761;28;20233;-68
2023/09/25 03:15:57;;;;;;;2.13;1.80;;;21.60;52.00;;;;;;5071173;28;20209;-67
2023/09/25 03:18:22;;;;;;;3.07;1.80;;;21.60;51.90;;;;;;5069804;28;21007;-68
2023/09/25 03:20:48;;;;;;;2.43;2.20;;;21.60;51.90;;;;;;5070865;28;20259;-67
2023/09/25 03:23:13;;;;;;;2.70;2.30;;;21.60;51.80;;;;;;5071208;28;20281;-68
2023/09/25 03:25:40;;;;;;;3.13;2.23;;;21.60;51.80;;;;;;5071051;28;20181;-67
2023/09/25 03:28:05;;;;;;;3.40;2.20;;;21.60;51.80;;;;;;5071082;28;20461;-66
2023/09/25 03:30:31;;;;;;;2.40;2.00;;;21.60;51.80;;;;;;5071078;28;20917;-67
2023/09/25 03:32:56;;;;;;;2.50;2.30;;;21.60;51.80;;;;;;5070885;28;20222;-66
2023/09/25 03:35:22;;;;;;;3.23;2.40;;;21.60;51.70;;;;;;5071094;28;20197;-67
2023/09/25 03:37:48;;;;;;;2.50;2.30;;;21.60;51.70;;;;;;5071048;28;20178;-67
2023/09/25 03:40:14;;;;;;;2.40;2.20;;;21.60;51.70;;;;;;5070470;28;20240;-67
2023/09/25 03:42:41;;;;;;;1.93;1.83;;;21.60;51.60;;;;;;5070398;28;20542;-69
2023/09/25 03:45:07;;;;;;;3.30;2.30;;;21.60;51.60;;;;;;5070482;28;20239;-67
2023/09/25 03:47:34;;;;;;;4.10;2.60;;;21.60;51.60;;;;;;5070451;28;20409;-65
2023/09/25 03:50:00;;;;;;;2.73;2.20;;;21.60;51.60;;;;;;5070723;28;20416;-67
2023/09/25 03:52:26;;;;;;;2.77;2.57;;;21.60;51.50;;;;;;5068862;28;20432;-67
2023/09/25 03:54:51;;;;;;;6.00;2.10;;;21.60;51.50;;;;;;5070272;28;20549;-66
2023/09/25 03:57:17;;;;;;;2.30;2.10;;;21.60;51.50;;;;;;5070545;28;20174;-67
2023/09/25 03:59:42;;;;;;;2.60;2.40;;;21.50;51.40;;;;;;5070373;28;20175;-68
2023/09/25 04:02:08;;;;;;;2.43;2.10;;;21.50;51.40;;;;;;5070292;28;20616;-67
2023/09/25 04:04:33;;;;;;;2.30;2.10;;;21.50;51.40;;;;;;5071811;28;20183;-68
2023/09/25 04:06:59;;;;;;;2.93;2.73;;;21.50;51.30;;;;;;5074049;28;20256;-68
2023/09/25 04:09:25;;;;;;;2.27;2.07;;;21.50;51.40;;;;;;5073935;28;20176;-67
2023/09/25 04:11:50;;;;;;;3.87;2.13;;;21.50;51.30;;;;;;5073883;28;20232;-67
2023/09/25 04:14:16;;;;;;;2.20;2.00;;;21.50;51.30;;;;;;5073911;28;20170;-67
2023/09/25 04:16:41;;;;;;;2.60;2.40;;;21.50;51.30;;;;;;5073663;28;20686;-65
2023/09/25 04:19:07;;;;;;;3.97;2.30;;;21.50;51.30;;;;;;5073652;28;20651;-67
2023/09/25 04:21:32;;;;;;;2.47;2.27;;;21.50;51.30;;;;;;5073513;28;20178;-67
2023/09/25 04:24:00;;;;;;;3.40;2.50;;;21.40;51.30;;;;;;5073620;28;20178;-68
2023/09/25 04:26:26;;;;;;;2.17;1.97;;;21.40;51.30;;;;;;5073841;28;20174;-65
2023/09/25 04:28:51;;;;;;;2.43;2.00;;;21.50;51.50;;;;;;5073536;28;20435;-67
2023/09/25 04:31:17;;;;;;;2.50;2.27;;;21.50;51.50;;;;;;5073496;28;20170;-68
2023/09/25 04:33:43;;;;;;;2.47;1.87;;;21.50;51.60;;;;;;5073403;28;20194;-67
2023/09/25 04:36:10;;;;;;;3.23;2.20;;;21.50;51.70;;;;;;5073406;28;20198;-67
2023/09/25 04:38:36;;;;;;;2.17;1.87;;;21.50;51.90;;;;;;5072587;28;20259;-68
2023/09/25 04:41:01;;;;;;;2.40;1.90;;;21.50;52.00;;;;;;5073105;28;20751;-67
2023/09/25 04:43:27;;;;;;;2.30;1.97;;;21.50;52.00;;;;;;5073312;28;20602;-67
2023/09/25 04:45:55;;;;;;;3.97;2.20;;;21.50;52.10;;;;;;5073278;28;20257;-68
2023/09/25 04:48:24;;;;;;;2.33;2.13;;;21.50;52.20;;;;;;5073205;28;20170;-67
2023/09/25 04:50:49;;;;;;;2.17;1.97;;;21.50;52.30;;;;;;5073205;28;20412;-67
2023/09/25 04:53:15;;;;;;;2.20;2.00;;;21.50;52.30;;;;;;5073177;28;21276;-67
2023/09/25 04:55:41;;;;;;;2.20;2.00;;;21.50;52.30;;;;;;5073065;28;20194;-69
2023/09/25 04:58:07;;;;;;;3.03;2.20;;;21.50;52.40;;;;;;5075157;28;20174;-69
2023/09/25 05:00:33;;;;;;;1.90;1.70;;;21.50;52.40;;;;;;5093103;28;20496;-67
2023/09/25 05:03:00;;;;;;;3.40;1.60;;;21.50;52.40;;;;;;5093133;28;20487;-68
2023/09/25 05:05:26;;;;;;;2.63;2.07;;;21.60;52.50;;;;;;5093151;28;20181;-67
2023/09/25 05:07:54;;;;;;;2.30;1.93;;;21.50;52.60;;;;;;5093206;28;20519;-67
2023/09/25 05:10:25;;;;;;;3.90;1.83;;;21.50;52.60;;;;;;5091675;28;20439;-70
2023/09/25 05:12:52;;;;;;;2.53;2.10;;;21.60;52.70;;;;;;5093006;28;20887;-66
2023/09/25 05:15:18;;;;;;;5.57;1.87;;;21.50;52.70;;;;;;5092488;28;20457;-67
2023/09/25 05:17:45;;;;;;;1.90;1.70;;;21.60;52.80;;;;;;5092928;28;20472;-67
2023/09/25 05:20:15;;;;;;;3.30;2.00;;;21.60;52.90;;;;;;5091677;28;20436;-67
2023/09/25 05:22:44;;;;;;;6.40;1.87;;;21.60;52.90;;;;;;5092757;28;20420;-68
2023/09/25 05:25:11;;;;;;;3.03;2.13;;;21.60;52.90;;;;;;5092725;28;20777;-67
2023/09/25 05:27:38;;;;;;;2.17;1.90;;;21.60;53.00;;;;;;5092667;28;20415;-68
2023/09/25 05:30:05;;;;;;;1.90;1.70;;;21.60;53.00;;;;;;5092664;28;20450;-68
2023/09/25 05:32:34;;;;;;;6.97;2.53;;;21.60;53.00;;;;;;5092782;28;20447;-67
2023/09/25 05:34:59;;;;;;;2.70;1.90;;;21.60;53.00;;;;;;5092520;28;20997;-65
2023/09/25 05:37:25;;;;;;;4.00;2.27;;;21.60;53.00;;;;;;5092564;28;20445;-68
2023/09/25 05:39:50;;;;;;;2.60;2.40;;;21.60;53.00;;;;;;5092480;28;20189;-62
2023/09/25 05:42:16;;;;;;;2.97;2.67;;;21.60;53.10;;;;;;5092343;28;20193;-68
2023/09/25 05:44:41;;;;;;;3.10;2.60;;;21.60;53.10;;;;;;5092655;28;20170;-66
2023/09/25 05:47:07;;;;;;;2.63;2.27;;;21.60;53.20;;;;;;5092324;28;20260;-67
2023/09/25 05:49:33;;;;;;;2.67;2.30;;;21.60;53.20;;;;;;5092500;28;20555;-67
2023/09/25 05:51:58;;;;;;;3.00;2.40;;;21.60;53.20;;;;;;5092426;28;20546;-66
2023/09/25 05:54:24;;;;;;;2.77;2.50;;;21.60;53.20;;;;;;5092302;28;20278;-67
2023/09/25 05:56:50;;;;;;;2.97;2.07;;;21.60;53.30;;;;;;5092137;28;20713;-67
2023/09/25 05:59:16;;;;;;;3.23;2.23;;;21.60;53.30;;;;;;5092062;28;20188;-66
2023/09/25 06:01:42;;;;;;;3.90;2.33;;;21.60;53.30;;;;;;5092002;28;20184;-68
2023/09/25 06:04:08;;;;;;;2.60;2.40;;;21.60;53.40;;;;;;5091664;28;20277;-67
2023/09/25 06:06:34;;;;;;;2.50;2.20;;;21.60;53.40;;;;;;5074459;28;20429;-68
2023/09/25 06:09:00;;;;;;;2.63;2.10;;;21.60;53.40;;;;;;5069740;28;20413;-67
2023/09/25 06:11:25;;;;;;;3.60;2.37;;;21.60;53.40;;;;;;5069879;28;20181;-68
2023/09/25 06:13:51;;;;;;;2.40;2.07;;;21.60;53.50;;;;;;5069680;28;20202;-66
2023/09/25 06:16:17;;;;;;;2.50;2.30;;;21.60;53.60;;;;;;5069596;28;20671;-68
2023/09/25 06:18:43;;;;;;;3.00;2.20;;;21.60;53.60;;;;;;5071391;28;20178;-67
2023/09/25 06:21:12;;;;;;;3.10;2.17;;;21.60;53.50;;;;;;5071448;28;20827;-66
2023/09/25 06:23:41;;;;;;;2.47;2.00;;;21.60;53.50;;;;;;5071471;28;20432;-68
2023/09/25 06:26:06;;;;;;;3.60;3.20;;;21.60;53.60;;;;;;5071218;28;20448;-66
2023/09/25 06:28:32;;;;;;;2.37;2.17;;;21.60;53.60;;;;;;5070882;28;20463;-66
2023/09/25 06:30:59;;;;;;;3.20;2.50;;;21.60;53.60;;;;;;5071482;28;20189;-67
2023/09/25 06:33:25;;;;;;;3.20;2.67;;;21.60;53.60;;;;;;5071208;28;20469;-67
2023/09/25 06:35:52;;;;;;;2.60;2.30;;;21.60;53.60;;;;;;5071101;28;20452;-65
2023/09/25 06:38:19;;;;;;;3.17;2.30;;;21.60;53.70;;;;;;5071169;28;20415;-67
2023/09/25 06:40:45;;;;;;;3.17;2.77;;;21.60;53.70;;;;;;5071178;28;21180;-66
2023/09/25 06:43:12;;;;;;;3.87;2.43;;;21.60;53.60;;;;;;5071077;28;20545;-67
2023/09/25 06:45:41;;;;;;;2.37;2.10;;;21.60;53.60;;;;;;5071133;28;20455;-68
2023/09/25 06:48:07;;;;;;;2.40;2.03;;;21.60;53.60;;;;;;5071029;28;20420;-67
2023/09/25 06:50:33;;;;;;;2.77;2.00;;;21.60;53.70;;;;;;5071055;28;20428;-67
2023/09/25 06:52:59;;;;;;;2.97;2.67;;;21.60;53.70;;;;;;5071139;28;20473;-67
2023/09/25 06:55:24;;;;;;;2.63;2.33;;;21.60;53.60;;;;;;5070911;28;20882;-66
2023/09/25 06:57:50;;;;;;;3.90;2.70;;;21.60;53.60;;;;;;5069606;28;20355;-67
2023/09/25 07:00:17;;;;;;;4.17;3.40;;;21.60;53.60;;;;;;5070911;28;20174;-67
2023/09/25 07:02:43;;;;;;;2.97;2.67;;;21.60;53.60;;;;;;5070800;28;20428;-67
2023/09/25 07:05:09;;;;;;;3.33;2.40;;;21.60;53.60;;;;;;5069428;28;20443;-67
2023/09/25 07:07:38;;;;;;;2.10;1.90;;;21.60;53.70;;;;;;5071038;28;20185;-68
2023/09/25 07:10:06;;;;;;;3.03;2.40;;;21.60;53.70;;;;;;5070842;28;20412;-68
2023/09/25 07:12:35;;;;;;;2.30;2.10;;;21.60;53.70;;;;;;5070655;28;20432;-68
2023/09/25 07:15:02;;;;;;;4.27;2.33;;;21.60;53.70;;;;;;5070616;28;20501;-67
2023/09/25 07:17:29;;;;;;;2.20;2.00;;;21.60;53.70;;;;;;5070726;28;20412;-67
2023/09/25 07:19:55;;;;;;;2.67;2.40;;;21.60;53.70;;;;;;5070695;28;20433;-66
2023/09/25 07:22:23;;;;;;;3.13;2.47;;;21.60;53.70;;;;;;5070650;28;20436;-67
2023/09/25 07:24:49;;;;;;;3.00;2.30;;;21.60;53.70;;;;;;5070745;28;20408;-66
2023/09/25 07:27:15;;;;;;;2.73;2.20;;;21.60;53.80;;;;;;5070656;28;20419;-67
2023/09/25 07:29:44;;;;;;;3.03;2.50;;;21.60;53.80;;;;;;5070661;28;20484;-66
2023/09/25 07:32:11;;;;;;;2.53;2.10;;;21.60;53.80;;;;;;5070370;28;20198;-67
2023/09/25 07:34:42;;;;;;;3.87;2.17;;;21.60;53.90;;;;;;5070044;28;20433;-69
2023/09/25 07:37:08;;;;;;;4.33;2.67;;;21.60;53.90;;;;;;5069431;28;20535;-67
2023/09/25 07:39:40;;;;;;;2.30;2.10;;;21.60;54.00;;;;;;5072082;28;20960;-66
2023/09/25 07:42:09;;;;;;;2.53;2.13;;;21.60;54.00;;;;;;5073028;28;20147;-68
2023/09/25 07:44:35;;;;;;;3.03;2.10;;;21.60;54.00;;;;;;5074400;28;20439;-67
2023/09/25 07:47:06;;;;;;;2.63;2.30;;;21.60;54.00;;;;;;5077208;28;20424;-66
2023/09/25 07:49:33;;;;;;;2.43;2.23;;;21.60;54.00;;;;;;5083924;28;20173;-66
2023/09/25 07:52:00;;;;;;;2.43;2.10;;;21.60;54.00;;;;;;5085015;28;21018;-69
2023/09/25 07:54:26;;;;;;;1.90;1.80;;;21.60;54.00;;;;;;5083093;28;20495;-66
2023/09/25 07:56:52;;;;;;;2.40;2.20;;;21.60;54.00;;;;;;5083728;28;20984;-67
2023/09/25 07:59:25;;;;;;;2.50;2.00;;;21.60;54.00;;;;;;5084737;28;20511;-67
2023/09/25 08:01:50;;;;;;;2.10;1.90;;;21.60;54.00;;;;;;5083628;28;20400;-65
2023/09/25 08:04:16;;;;;;;2.37;2.10;;;21.60;54.00;;;;;;5083038;28;20411;-68
2023/09/25 08:06:41;;;;;;;4.77;2.40;;;21.60;54.60;;;;;;5084783;28;20177;-67
2023/09/25 08:09:07;;;;;;;4.13;2.00;;;21.70;54.20;;;;;;5081910;28;20181;-66
2023/09/25 08:11:33;;;;;;;3.50;2.10;;;21.60;54.10;;;;;;5073945;28;20189;-67
2023/09/25 08:13:59;;;;;;;6.47;2.50;;;21.70;54.20;;;;;;5073893;28;20201;-67
2023/09/25 08:16:27;;;;;;;2.67;1.90;;;21.70;54.20;;;;;;5073986;28;20217;-67
2023/09/25 08:18:52;;;;;;;3.37;2.20;;;21.70;54.30;;;;;;5073839;28;20674;-69
2023/09/25 08:21:19;;;;;;;5.10;2.77;;;21.70;54.30;;;;;;5087299;28;20439;-66
2023/09/25 08:23:45;;;;;;;3.80;1.97;;;21.70;54.20;;;;;;5093983;28;20572;-66
2023/09/25 08:26:10;;;;;;;5.13;1.83;;;21.70;54.20;;;;;;5093882;28;20417;-68
2023/09/25 08:28:36;;;;;;;4.23;2.57;;;21.70;54.30;;;;;;5093907;28;20520;-67
2023/09/25 08:31:02;;;;;;;4.23;2.63;;;21.70;54.50;;;;;;5093822;28;20178;-67
2023/09/25 08:33:27;;;;;;;3.13;2.50;;;21.70;54.40;;;;;;5092345;28;20783;-67
2023/09/25 08:35:53;;;;;;;2.80;2.50;;;21.70;54.40;;;;;;5093604;28;20201;-68
2023/09/25 08:38:18;;;;;;;3.67;1.93;;;21.70;54.40;;;;;;5093756;28;20225;-69
2023/09/25 08:40:48;;;;;;;3.30;2.50;;;21.70;54.40;;;;;;5092212;28;20184;-65
2023/09/25 08:43:14;;;;;;;3.10;2.30;;;21.70;54.40;;;;;;5093441;28;20217;-63
2023/09/25 08:45:41;;;;;;;2.80;2.00;;;21.70;54.40;;;;;;5093517;28;20412;-66
2023/09/25 08:48:10;;;;;;;5.40;2.30;;;21.70;54.30;;;;;;5093466;28;20415;-68
2023/09/25 08:50:40;;;;;;;4.80;2.50;;;21.70;54.40;;;;;;5092742;28;20911;-68
2023/09/25 08:53:06;;;;;;;3.40;2.37;;;21.70;54.40;;;;;;5093428;28;20423;-68
2023/09/25 08:55:33;;;;;;;2.50;2.10;;;21.70;54.40;;;;;;5093082;28;20509;-68
2023/09/25 08:58:00;;;;;;;3.03;1.93;;;21.70;54.40;;;;;;5093334;28;20413;-67
2023/09/25 09:00:27;;;;;;;3.20;2.37;;;21.70;54.40;;;;;;5093274;28;20777;-67
2023/09/25 09:02:53;;;;;;;6.17;2.97;;;21.70;54.40;;;;;;5093225;28;20428;-69
2023/09/25 09:05:19;;;;;;;3.77;1.97;;;21.70;54.50;;;;;;5091670;28;20438;-67
2023/09/25 09:08:00;;;;;;;3.33;2.30;;;21.70;54.50;;;;;;5092915;28;20883;-66
2023/09/25 09:10:30;;;;;;;2.30;2.00;;;21.70;54.50;;;;;;5093269;28;20189;-68
2023/09/25 09:12:56;;;;;;;2.40;2.20;;;21.70;54.50;;;;;;5092866;28;20420;-67
2023/09/25 09:15:26;;;;;;;4.20;2.10;;;21.70;54.50;;;;;;5091819;28;20447;-67
2023/09/25 09:17:56;;;;;;;2.27;1.93;;;21.70;54.60;;;;;;5092903;28;20252;-67
2023/09/25 09:20:32;;;;;;;3.50;2.03;;;21.70;54.50;;;;;;5092711;28;20469;-67
2023/09/25 09:22:58;;;;;;;2.77;2.00;;;21.70;54.50;;;;;;5092734;28;20454;-67
2023/09/25 09:25:25;;;;;;;2.33;1.70;;;21.70;54.50;;;;;;5092463;28;20791;-68
2023/09/25 09:27:51;;;;;;;2.63;2.33;;;21.70;54.60;;;;;;5093258;28;20189;-67
2023/09/25 09:30:22;;;;;;;2.50;2.10;;;21.70;54.50;;;;;;5074642;28;20416;-69
2023/09/25 09:32:50;;;;;;;2.37;2.10;;;21.70;54.50;;;;;;5092505;28;20455;-67
2023/09/25 09:35:23;;;;;;;2.10;1.90;;;21.70;54.60;;;;;;5092335;28;20419;-68
2023/09/25 09:38:02;;;;;;;1.97;1.80;;;21.70;54.60;;;;;;5092430;28;20385;-67
2023/09/25 09:40:30;;;;;;;3.40;2.27;;;21.70;54.60;;;;;;5092467;28;20936;-67
2023/09/25 09:42:56;;;;;;;3.37;2.07;;;21.70;54.60;;;;;;5092256;28;20427;-66
2023/09/25 09:45:22;;;;;;;4.63;2.20;;;21.70;54.60;;;;;;5092214;28;20415;-68
2023/09/25 09:47:50;;;;;;;2.30;2.03;;;21.70;54.60;;;;;;5092277;28;20212;-68
2023/09/25 09:50:26;;;;;;;1.80;1.63;;;21.70;54.60;;;;;;5092220;28;20408;-67
2023/09/25 09:52:52;;;;;;;2.20;2.00;;;21.70;54.60;;;;;;5092065;28;20442;-67
2023/09/25 09:55:21;;;;;;;2.10;1.87;;;21.70;54.60;;;;;;5092412;28;20415;-66
2023/09/25 09:57:48;;;;;;;2.10;1.90;;;21.70;54.60;;;;;;5091991;28;20174;-68
2023/09/25 10:00:14;;;;;;;2.80;2.60;;;21.70;54.60;;;;;;5092019;28;20407;-68
2023/09/25 10:02:40;;;;;;;3.10;2.03;;;21.70;54.60;;;;;;5091312;28;20446;-67
2023/09/25 10:05:10;;;;;;;2.33;1.80;;;21.70;54.60;;;;;;5091911;28;20407;-67
2023/09/25 10:08:03;;;;;;;3.30;2.23;;;21.70;54.70;;;;;;5091959;28;20408;-67
2023/09/25 10:10:29;;;;;;;2.20;1.90;;;21.70;54.70;;;;;;5091984;28;20407;-68
2023/09/25 10:12:56;;;;;;;2.50;2.30;;;21.70;54.70;;;;;;5091893;28;20436;-67
2023/09/25 10:15:24;;;;;;;2.60;2.17;;;21.70;54.70;;;;;;5091918;28;20205;-68
2023/09/25 10:17:49;;;;;;;2.80;2.13;;;21.70;54.70;;;;;;5091597;28;20412;-68
2023/09/25 10:20:36;;;;;;;2.37;2.10;;;21.70;54.80;;;;;;5091606;28;20519;-68
2023/09/25 10:23:22;;;;;;;2.33;2.03;;;21.70;54.70;;;;;;5091797;28;20239;-68
2023/09/25 10:26:02;;;;;;;2.20;2.00;;;21.70;54.70;;;;;;5091645;28;20404;-67
2023/09/25 10:28:32;;;;;;;2.30;2.10;;;21.70;54.80;;;;;;5086491;28;20420;-67
2023/09/25 10:30:59;;;;;;;2.60;1.80;;;21.70;54.80;;;;;;5076562;28;20412;-66
2023/09/25 10:33:32;;;;;;;2.30;2.10;;;21.70;54.90;;;;;;5071172;28;20436;-66
2023/09/25 10:36:03;;;;;;;2.90;2.37;;;21.70;54.80;;;;;;5071133;28;20460;-67
2023/09/25 10:38:31;;;;;;;2.50;2.23;;;21.70;54.80;;;;;;5071184;28;20495;-68
2023/09/25 10:41:00;;;;;;;2.30;2.10;;;21.70;54.80;;;;;;5069977;28;20493;-68
2023/09/25 10:43:26;;;;;;;2.40;1.90;;;21.70;54.80;;;;;;5070722;28;20439;-68
2023/09/25 10:45:54;;;;;;;2.40;2.17;;;21.70;54.80;;;;;;5073154;28;20905;-66
2023/09/25 10:48:20;;;;;;;2.17;1.90;;;21.70;54.80;;;;;;5090554;28;20307;-67
2023/09/25 10:50:47;;;;;;;2.07;1.87;;;21.70;54.80;;;;;;5090925;28;20408;-67
2023/09/25 10:53:14;;;;;;;2.37;2.17;;;21.70;55.00;;;;;;5091000;28;20435;-67
2023/09/25 10:55:40;;;;;;;3.33;2.60;;;21.70;54.90;;;;;;5090928;28;20473;-67
2023/09/25 10:58:08;;;;;;;2.40;2.20;;;21.70;54.90;;;;;;5091006;28;20975;-67
2023/09/25 11:00:38;;;;;;;3.30;1.80;;;21.70;55.00;;;;;;5089474;28;20514;-67
2023/09/25 11:03:05;;;;;;;2.27;2.07;;;21.70;54.90;;;;;;5090962;28;20446;-67
2023/09/25 11:05:33;;;;;;;1.90;1.80;;;21.70;54.90;;;;;;5091103;28;20506;-66
2023/09/25 11:07:59;;;;;;;3.80;2.00;;;21.70;54.80;;;;;;5090879;28;20455;-67
2023/09/25 11:10:29;;;;;;;2.90;2.37;;;21.70;54.80;;;;;;5090911;28;20450;-67
2023/09/25 11:12:57;;;;;;;4.43;2.50;;;21.80;54.90;;;;;;5090548;28;20441;-68
2023/09/25 11:15:25;;;;;;;2.43;2.20;;;21.80;54.90;;;;;;5090796;28;20566;-67
2023/09/25 11:17:50;;;;;;;2.20;2.00;;;21.80;54.90;;;;;;5090739;28;20411;-67
2023/09/25 11:20:19;;;;;;;2.20;2.00;;;21.80;54.90;;;;;;5090668;28;20477;-68
2023/09/25 11:22:48;;;;;;;2.50;2.07;;;21.80;54.90;;;;;;5090681;28;20193;-67
2023/09/25 11:25:15;;;;;;;2.03;1.70;;;21.80;54.90;;;;;;5090760;28;20396;-67
2023/09/25 11:27:52;;;;;;;3.57;2.03;;;21.80;54.90;;;;;;5090607;28;20460;-67
2023/09/25 11:30:18;;;;;;;6.63;3.10;;;21.80;54.90;;;;;;5090604;28;20922;-67
2023/09/25 11:32:44;;;;;;;6.30;4.70;;;21.80;55.00;;;;;;5090835;28;20936;-67
2023/09/25 11:35:13;;;;;;;6.90;4.80;;;21.80;54.90;;;;;;5090870;28;20416;-66
2023/09/25 11:38:02;;;;;;;9.20;6.20;;;21.80;55.00;;;;;;5090790;28;20166;-66
2023/09/25 11:40:29;;;;;;;8.70;6.20;;;21.80;55.00;;;;;;5090286;28;20434;-66
2023/09/25 11:42:56;;;;;;;10.03;7.07;;;21.70;55.00;;;;;;5090356;28;20935;-67
2023/09/25 11:45:23;;;;;;;9.27;6.80;;;21.70;55.00;;;;;;5090569;28;20407;-66
2023/09/25 11:47:49;;;;;;;9.27;5.53;;;21.70;55.00;;;;;;5090518;28;20456;-65
2023/09/25 11:50:16;;;;;;;12.57;6.50;;;21.80;55.10;;;;;;5090328;28;20411;-66
2023/09/25 11:52:48;;;;;;;11.07;6.93;;;21.70;55.00;;;;;;5090404;28;20488;-67
2023/09/25 11:55:17;;;;;;;13.60;6.97;;;21.80;55.10;;;;;;5090440;28;20491;-66
2023/09/25 11:57:44;;;;;;;12.00;6.80;;;21.80;55.10;;;;;;5090441;28;20490;-66
2023/09/25 12:00:24;;;;;;;12.47;7.07;;;21.80;55.10;;;;;;5090310;28;20415;-65
2023/09/25 12:02:49;;;;;;;8.03;5.97;;;21.80;55.10;;;;;;5090452;28;20446;-67
2023/09/25 12:05:16;;;;;;;10.60;5.53;;;21.80;55.20;;;;;;5090515;28;20915;-67
2023/09/25 12:07:42;;;;;;;9.30;6.60;;;21.70;55.10;;;;;;5090203;28;20177;-66
2023/09/25 12:10:12;;;;;;;11.00;5.80;;;21.80;55.20;;;;;;5090317;28;20437;-66
2023/09/25 12:12:39;;;;;;;11.83;6.23;;;21.80;55.20;;;;;;5090434;28;20426;-65
2023/09/25 12:15:06;;;;;;;11.77;5.70;;;21.70;55.10;;;;;;5090089;28;20418;-67
2023/09/25 12:17:32;;;;;;;15.30;5.43;;;21.80;55.10;;;;;;5090385;28;20412;-68
2023/09/25 12:20:00;;;;;;;8.70;4.97;;;21.80;55.30;;;;;;5090200;28;20435;-65
2023/09/25 12:22:25;;;;;;;8.20;5.40;;;21.80;55.20;;;;;;5090171;28;20463;-66
2023/09/25 12:24:51;;;;;;;9.87;5.20;;;21.80;55.30;;;;;;5090716;28;20469;-66
2023/09/25 12:27:17;;;;;;;8.37;4.90;;;21.80;55.20;;;;;;5093900;28;20185;-66
2023/09/25 12:29:44;;;;;;;7.87;4.40;;;21.80;55.20;;;;;;5093758;28;20219;-64
2023/09/25 12:32:11;;;;;;;8.00;4.60;;;21.80;55.20;;;;;;5093709;28;20806;-65
2023/09/25 12:34:38;;;;;;;8.20;4.90;;;21.80;55.30;;;;;;5093747;28;20464;-65
2023/09/25 12:37:04;;;;;;;6.83;4.57;;;21.80;55.20;;;;;;5093474;28;20473;-66
2023/09/25 12:39:29;;;;;;;6.27;4.57;;;21.80;55.20;;;;;;5093634;28;20412;-65
2023/09/25 12:41:55;;;;;;;6.40;4.30;;;21.80;55.20;;;;;;5093669;28;20775;-66
2023/09/25 12:44:21;;;;;;;9.03;4.97;;;21.80;55.20;;;;;;5093558;28;20170;-64